Flight Track Log - Related Links

Times and Time Zones

All times are in EDT time to prevent confusion due to time zone crossing. See the UAL996 flight status page for this flight to view local times or setup timezone preferences in your user account.

Time Position Orientation Groundspeed Altitude Reporting Facility
EDT Latitude Longitude Course Direction KTS MPH feet Rate Location/Type
Fri 03:05:55 AM 33.9314 -118.4450 220° Southwest 175 201 1,800  Level Los Angeles Center
Fri 03:06:55 AM 33.8856 -118.4914 220° Southwest 242 278 3,900 2,350 Climbing Los Angeles Center
Fri 03:07:55 AM 33.8119 -118.5022 187° South 270 311 6,500 3,124 Climbing Los Angeles Center
Fri 03:08:56 AM 33.7328 -118.5153 188° South 290 334 10,200 3,074 Climbing Los Angeles Center
Fri 03:09:56 AM 33.6711 -118.4522 140° Southeast 324 373 12,700 1,785 Climbing Los Angeles Center
Fri 03:10:57 AM 33.6433 -118.3319 105° East 380 437 13,800 1,488 Climbing Los Angeles Center
Fri 03:11:57 AM 33.6439 -118.1706 90° East 412 474 15,700 1,650 Climbing Los Angeles Center
Fri 03:12:57 AM 33.6442 -118.0281 90° East 426 490 17,100 1,488 Climbing Los Angeles Center
Fri 03:13:58 AM 33.6356 -117.8742 94° East 459 528 18,700 1,636 Climbing Los Angeles Center
Fri 03:14:58 AM 33.6253 -117.7197 95° East 467 537 20,400 1,587 Climbing Los Angeles Center
Fri 03:15:59 AM 33.6150 -117.5639 94° East 470 541 21,900 1,388 Climbing Los Angeles Center
Fri 03:16:59 AM 33.6044 -117.4044 95° East 477 549 23,200 1,250 Climbing Los Angeles Center
Fri 03:17:59 AM 33.5919 -117.2417 95° East 486 559 24,400 1,140 Climbing Los Angeles Center
Fri 03:19:00 AM 33.5969 -117.0764 88° East 510 587 25,500 942 Climbing Los Angeles Center
Fri 03:20:00 AM 33.6464 -116.9197 69° East 506 582 26,300 1,091 Climbing Los Angeles Center
Fri 03:21:01 AM 33.6350 -116.7372 94° East 523 602 27,700 1,339 Climbing Los Angeles Center
Fri 03:22:01 AM 33.6211 -116.5675 96° East 511 588 29,000 800 Climbing Los Angeles Center
Fri 03:23:01 AM 33.6069 -116.3925 96° East 522 601 29,300 744 Climbing Los Angeles Center
Fri 03:24:02 AM 33.5914 -116.2128 96° East 536 617 30,500 1,190 Climbing Los Angeles Center
Fri 03:25:02 AM 33.5772 -116.0367 95° East 531 611 31,700 1,050 Climbing Los Angeles Center
Fri 03:26:02 AM 33.5614 -115.8608 96° East 528 608 32,600 1,041 Climbing Los Angeles Center
Fri 03:27:03 AM 33.5464 -115.6861 96° East 527 606 33,800 843 Climbing Los Angeles Center
Fri 03:28:03 AM 33.5300 -115.5125 96° East 524 603 34,300 545 Climbing Los Angeles Center
Fri 03:29:04 AM 33.5128 -115.3383 97° East 525 604 34,900 271 Climbing Los Angeles Center
Fri 03:30:16 AM 33.4967 -115.1667 96° East 519 597 34,900 45 Level Los Angeles Center
Fri 03:31:16 AM 33.4775 -114.9572 96° East 526 605 35,000 50 Climbing Los Angeles Center
Fri 03:32:17 AM 33.4603 -114.7819 97° East 529 609 35,000 -50 Level Los Angeles Center
Fri 03:33:17 AM 33.4431 -114.6083 97° East 527 606 34,900  Descending Los Angeles Center
Fri 03:34:18 AM 33.4239 -114.4325 97° East 530 610 35,000 50 Climbing Los Angeles Center
Fri 03:35:18 AM 33.4092 -114.2589 96° East 526 605 35,000 -50 Level Los Angeles Center
Fri 03:36:18 AM 33.3925 -114.0856 97° East 526 605 34,900  Descending Los Angeles Center
Fri 03:37:19 AM 33.3739 -113.9117 97° East 527 606 35,000 50 Climbing Los Angeles Center
Fri 03:38:19 AM 33.3547 -113.7394 98° East 522 601 35,000 -50 Level Los Angeles Center
Fri 03:39:19 AM 33.3383 -113.5658 96° East 524 603 34,900  Descending Los Angeles Center
Fri 03:40:20 AM 33.3186 -113.3925 98° East 525 604 35,000 50 Climbing Los Angeles Center
Fri 03:41:20 AM 33.3008 -113.2122 97° East 533 613 35,000 -50 Level Los Angeles Center
Fri 03:42:20 AM 33.2822 -113.0406 97° East 523 602 34,900 -41 Descending Los Angeles Center
Fri 03:43:48 AM 33.2531 -112.7928 98° East 530 610 34,900 41 Level Albuquerque Center
Fri 03:44:48 AM 33.2342 -112.6181 97° East 530 610 35,000 50 Climbing Albuquerque Center
Fri 03:45:48 AM 33.2147 -112.4525 98° East 528 608 35,000  Level Albuquerque Center
Fri 03:46:48 AM 33.1953 -112.2806 98° East 527 606 35,000  Level Albuquerque Center
Fri 03:47:49 AM 33.1750 -112.1092 98° East 525 604 35,000  Level Albuquerque Center
Fri 03:48:49 AM 33.1544 -111.9392 98° East 524 603 35,000  Level Albuquerque Center
Fri 03:49:49 AM 33.1339 -111.7683 98° East 525 604 35,000  Level Albuquerque Center
Fri 03:50:49 AM 33.1128 -111.5978 98° East 524 603 35,000  Level Albuquerque Center
Fri 03:51:50 AM 33.0881 -111.3950 98° East 518 596 35,000  Level Albuquerque Center
Fri 03:52:50 AM 33.0675 -111.2272 98° East 515 593 35,000  Level Albuquerque Center
Fri 03:53:50 AM 33.0461 -111.0603 99° East 514 592 35,000  Level Albuquerque Center
Fri 03:54:50 AM 33.0242 -110.8922 99° East 516 594 35,000 -50 Level Albuquerque Center
Fri 03:55:51 AM 33.0033 -110.7225 98° East 518 596 34,900  Descending Albuquerque Center
Fri 03:56:51 AM 32.9800 -110.5533 99° East 518 596 35,000 50 Climbing Albuquerque Center
Fri 03:57:51 AM 32.9575 -110.3842 99° East 518 596 35,000  Level Albuquerque Center
Fri 03:58:51 AM 32.9347 -110.2178 99° East 513 590 35,000  Level Albuquerque Center
Fri 03:59:52 AM 32.9133 -110.0539 99° East 507 583 35,000  Level Albuquerque Center
Fri 04:00:52 AM 32.8906 -109.8892 99° East 506 582 35,000  Level Albuquerque Center
Fri 04:01:52 AM 32.8669 -109.7211 99° East 512 589 35,000  Level Albuquerque Center
Fri 04:02:52 AM 32.8422 -109.5519 100° East 518 596 35,000  Level Albuquerque Center
Fri 04:03:52 AM 32.8178 -109.3828 100° East 521 600 35,000  Level Albuquerque Center
Fri 04:04:53 AM 32.7936 -109.2169 100° East 519 597 35,000  Level Albuquerque Center
Fri 04:05:53 AM 32.7711 -109.0625 100° East 517 595 35,000 -50 Level Albuquerque Center
Fri 04:06:53 AM 32.7500 -108.8928 98° East 520 598 34,900  Descending Albuquerque Center
Fri 04:07:53 AM 32.7219 -108.7197 101° East 522 601 35,000 50 Climbing Albuquerque Center
Fri 04:08:53 AM 32.6969 -108.5519 100° East 522 601 35,000  Level Albuquerque Center
Fri 04:09:54 AM 32.6719 -108.3847 100° East 519 597 35,000  Level Albuquerque Center
Fri 04:10:54 AM 32.6472 -108.2219 100° East 508 585 35,000  Level Albuquerque Center
Fri 04:11:54 AM 32.6225 -108.0611 100° East 500 575 35,000  Level Albuquerque Center
Fri 04:12:54 AM 32.5975 -107.8994 100° East 500 575 35,000  Level Albuquerque Center
Fri 04:13:55 AM 32.5736 -107.7417 100° East 497 572 35,000 -50 Level Albuquerque Center
Fri 04:14:55 AM 32.5428 -107.5469 101° East 500 575 34,900  Descending Albuquerque Center
Fri 04:15:55 AM 32.5225 -107.4147 100° East 501 577 35,000 50 Climbing Albuquerque Center
Fri 04:16:55 AM 32.4986 -107.2506 100° East 504 580 35,000  Level Albuquerque Center
Fri 04:17:55 AM 32.4658 -107.0617 102° East 501 577 35,000  Level Albuquerque Center
Fri 04:18:56 AM 32.4389 -106.8992 101° East 501 577 35,000  Level Albuquerque Center
Fri 04:19:56 AM 32.4181 -106.7494 99° East 504 580 35,000  Level Albuquerque Center
Fri 04:20:56 AM 32.3911 -106.5900 101° East 498 573 35,000 -50 Level Albuquerque Center
Fri 04:21:56 AM 32.3647 -106.4322 101° East 492 566 34,900 -50 Descending Albuquerque Center
Fri 04:22:56 AM 32.3381 -106.2753 101° East 488 562 34,900 50 Level Albuquerque Center
Fri 04:23:56 AM 32.3083 -106.1000 101° East 495 570 35,000 50 Climbing Albuquerque Center
Fri 04:24:57 AM 32.2808 -105.9422 102° East 492 566 35,000 -50 Level Albuquerque Center
Fri 04:25:57 AM 32.2544 -105.7825 101° East 495 570 34,900  Descending Albuquerque Center
Fri 04:26:57 AM 32.2256 -105.6247 102° East 492 566 35,000 50 Climbing Albuquerque Center
Fri 04:27:57 AM 32.2000 -105.4661 101° East 492 566 35,000  Level Albuquerque Center
Fri 04:28:57 AM 32.1719 -105.3094 102° East 489 563 35,000 -50 Level Albuquerque Center
Fri 04:29:58 AM 32.1431 -105.1544 102° East 486 559 34,900  Descending Albuquerque Center
Fri 04:30:58 AM 32.1167 -104.9958 101° East 490 564 35,000  Climbing Albuquerque Center
Fri 04:31:58 AM 32.0883 -104.8400 102° East 488 562 34,900  Descending Albuquerque Center
Fri 04:32:58 AM 32.0597 -104.6844 102° East 486 559 35,000 50 Climbing Albuquerque Center
Fri 04:33:58 AM 32.0311 -104.5258 102° East 490 564 35,000  Level Albuquerque Center
Fri 04:34:59 AM 32.0031 -104.3728 102° East 483 556 35,000 545 Level Albuquerque Center
Fri 04:35:59 AM 31.9756 -104.2192 102° East 481 554 36,100 1,000 Climbing Albuquerque Center
Fri 04:36:59 AM 31.9467 -104.0681 103° East 475 547 37,000 450 Climbing Albuquerque Center
Fri 04:37:59 AM 31.9225 -103.9397 102° East 474 545 37,000  Level Albuquerque Center
Fri 04:38:59 AM 31.8947 -103.7867 102° East 478 550 37,000  Level Albuquerque Center
Fri 04:40:00 AM 31.8644 -103.6342 103° East 480 552 37,000  Level Albuquerque Center
Fri 04:41:00 AM 31.8297 -103.4494 102° East 483 556 37,000 -50 Level Albuquerque Center
Fri 04:42:00 AM 31.7994 -103.2981 103° East 483 556 36,900  Descending Albuquerque Center
Fri 04:43:00 AM 31.7703 -103.1442 103° East 483 556 37,000 50 Climbing Albuquerque Center
Fri 04:44:00 AM 31.7394 -102.9903 103° East 483 556 37,000 -50 Level Albuquerque Center
Fri 04:45:00 AM 31.7103 -102.8336 102° East 486 559 36,900 -50 Descending Albuquerque Center
Fri 04:46:01 AM 31.6783 -102.6803 104° East 485 558 36,900  Level Albuquerque Center
Fri 04:47:01 AM 31.6478 -102.5258 103° East 486 559 36,900 50 Level Albuquerque Center
Fri 04:48:01 AM 31.6158 -102.3669 103° East 495 570 37,000 50 Climbing Albuquerque Center
Fri 04:49:01 AM 31.5856 -102.2078 103° East 498 573 37,000  Level Albuquerque Center
Fri 04:50:01 AM 31.5539 -102.0483 103° East 505 581 37,000  Level Albuquerque Center
Fri 04:50:35 AM 31.5414 -101.9850 103° East 498 573 37,000  Level Houston Center
Fri 04:51:35 AM 31.5075 -101.8289 104° East 493 567 37,000 -50 Level Houston Center
Fri 04:52:35 AM 31.4758 -101.6753 104° East 486 559 36,900  Descending Houston Center
Fri 04:53:35 AM 31.4433 -101.5214 104° East 486 559 37,000 50 Climbing Houston Center
Fri 04:54:35 AM 31.4097 -101.3686 104° East 485 558 37,000 -50 Level Houston Center
Fri 04:55:36 AM 31.3789 -101.2172 103° East 481 554 36,900  Descending Houston Center
Fri 04:56:36 AM 31.3467 -101.0642 104° East 483 556 37,000 50 Climbing Houston Center
Fri 04:57:36 AM 31.3144 -100.9103 104° East 481 554 37,000  Level Houston Center
Fri 04:58:36 AM 31.2800 -100.7589 105° East 482 555 37,000 -50 Level Houston Center
Fri 04:59:36 AM 31.2489 -100.6075 103° East 480 552 36,900  Descending Houston Center
Fri 05:00:37 AM 31.2167 -100.4558 104° East 480 552 37,000 50 Climbing Houston Center
Fri 05:01:37 AM 31.1828 -100.3056 105° East 479 551 37,000  Level Houston Center
Fri 05:02:37 AM 31.1503 -100.1547 104° East 478 550 37,000  Level Houston Center
Fri 05:03:37 AM 31.1158 -100.0039 105° East 479 551 37,000  Level Houston Center
Fri 05:04:37 AM 31.0836 -99.8533 104° East 479 551 37,000  Level Houston Center
Fri 05:05:37 AM 31.0494 -99.7025 105° East 480 552 37,000  Level Houston Center
Fri 05:06:38 AM 31.0150 -99.5522 105° East 479 551 37,000  Level Houston Center
Fri 05:07:38 AM 30.9808 -99.4022 105° East 480 552 37,000  Level Houston Center
Fri 05:08:38 AM 30.9472 -99.2522 105° East 478 550 37,000  Level Houston Center
Fri 05:09:38 AM 30.9100 -99.0897 105° East 476 548 37,000  Level Houston Center
Fri 05:10:39 AM 30.8756 -98.9386 105° East 479 551 37,000  Level Houston Center
Fri 05:11:39 AM 30.8400 -98.7900 106° East 474 545 37,000  Level Houston Center
Fri 05:12:39 AM 30.8042 -98.6394 105° East 477 549 37,000  Level Houston Center
Fri 05:13:39 AM 30.7675 -98.4903 106° East 477 549 37,000  Level Houston Center
Fri 05:14:39 AM 30.7353 -98.3672 107° East 474 545 37,000  Level Houston Center
Fri 05:15:40 AM 30.6972 -98.2183 107° East 477 549 37,000  Level Houston Center
Fri 05:16:40 AM 30.6586 -98.0711 107° East 473 544 37,000  Level Houston Center
Fri 05:17:40 AM 30.6203 -97.9239 107° East 474 545 37,000  Level Houston Center
Fri 05:18:40 AM 30.5819 -97.7772 107° East 473 544 37,000 -99 Level Houston Center
Fri 05:19:41 AM 30.5422 -97.6311 107° East 474 545 36,800 -1,190 Descending Houston Center
Fri 05:20:41 AM 30.5031 -97.4872 107° East 467 537 34,600 -2,400 Descending Houston Center
Fri 05:21:41 AM 30.4644 -97.3456 108° East 461 531 32,000 -2,350 Descending Houston Center
Fri 05:22:41 AM 30.4256 -97.2056 108° East 457 526 29,900 -2,150 Descending Houston Center
Fri 05:23:41 AM 30.3886 -97.0717 108° East 438 504 27,700 -2,083 Descending Houston Center
Fri 05:24:42 AM 30.3506 -96.9300 107° East 429 494 25,700 -2,041 Descending Houston Center
Fri 05:25:18 AM 30.3261 -96.8547 111° Southeast 416 479 24,400 -1,900 Descending Houston Center
Fri 05:25:42 AM 30.3169 -96.8139 105° East 413 475 23,800 -2,111 Descending Houston Center
Fri 05:26:12 AM 30.2958 -96.7369 108° East 398 458 22,500 -2,200 Descending Houston Center
Fri 05:26:42 AM 30.2828 -96.6914 108° East 401 461 21,600 -1,869 Descending Houston Center
Fri 05:27:13 AM 30.2631 -96.6197 108° East 392 451 20,600 -1,600 Descending Houston Center
Fri 05:27:42 AM 30.2500 -96.5728 108° East 389 448 20,000 -1,791 Descending Houston Center
Fri 05:28:20 AM 30.2275 -96.4931 108° East 370 426 18,600 -2,066 Descending Houston Center
Fri 05:28:43 AM 30.2178 -96.4603 109° East 370 426 17,900 -2,600 Descending Houston Center
Fri 05:29:20 AM 30.1931 -96.3811 110° East 368 423 16,000 -2,400 Descending Houston Center
Fri 05:29:43 AM 30.1839 -96.3478 108° East 369 425 15,500 -1,377 Descending Houston Center
Fri 05:30:21 AM 30.1600 -96.2617 108° East 370 426 14,600 -900 Descending Houston Center
Fri 05:30:43 AM 30.1539 -96.2353 105° East 366 421 14,600 -1,000 Level Houston Center
Fri 05:31:21 AM 30.1308 -96.1633 110° East 319 367 13,600 -1,300 Descending Houston Center
Fri 05:31:43 AM 30.1272 -96.1458 103° East 321 369 13,300 -1,475 Descending Houston Center
Fri 05:32:22 AM 30.1036 -96.0675 109° East 313 360 12,100 -1,600 Descending Houston Center
Fri 05:32:43 AM 30.0997 -96.0506 105° East 314 361 11,700 -1,672 Descending Houston Center
Fri 05:33:23 AM 30.0764 -95.9717 109° East 314 361 10,400 -1,574 Descending Houston Center
Fri 05:33:44 AM 30.0708 -95.9467 104° East 314 361 10,100 -857 Descending Houston Center
Fri 05:35:00 AM 30.0079 -95.7691 108° East  Level FlightAware Approximate
Fri 05:42:00 AM 29.9833 -95.3333 90° East  Level FlightAware Approximate
Fri 05:43:00 AM 29.9844 -95.3414 90° East  Level Estimated

Login

Don't have an account? Register now (free) for customized features, flight alerts, and more!